Time;durP1;ratioP1;P1;durP2;ratioP2;P2;SDS_P1;SDS_P2;PMS_P1;PMS_P2;Temp;Humidity;BMP_temperature;BMP_pressure;BME280_temperature;BME280_humidity;BME280_pressure;Samples;Min_cycle;Max_cycle;Signal;HPM_P1;HPM_P2
2024/04/02 00:01:09;;;;;;;0.60;0.40;;;;;;;6.32;100.00;96314.00;5020431;28;20041;-60
2024/04/02 00:03:35;;;;;;;2.50;0.60;;;;;;;6.28;100.00;96312.88;5021575;28;20181;-62
2024/04/02 00:06:01;;;;;;;1.23;0.40;;;;;;;6.26;100.00;96320.34;5007461;28;20136;-61
2024/04/02 00:08:28;;;;;;;1.15;0.60;;;;;;;6.30;100.00;96316.09;5014322;28;20612;-59
2024/04/02 00:10:59;;;;;;;2.72;0.40;;;;;;;6.37;100.00;96327.50;5020379;28;20041;-61
2024/04/02 00:13:24;;;;;;;1.35;0.60;;;;;;;6.44;100.00;96330.00;5009287;28;20038;-60
2024/04/02 00:15:50;;;;;;;1.65;0.45;;;;;;;6.50;100.00;96336.25;5012230;28;20112;-60
2024/04/02 00:18:15;;;;;;;3.10;0.98;;;;;;;6.47;100.00;96320.59;5021739;28;20037;-60
2024/04/02 00:20:42;;;;;;;2.13;1.00;;;;;;;6.48;100.00;96330.28;5012776;28;20331;-62
2024/04/02 00:23:08;;;;;;;2.42;0.80;;;;;;;6.44;100.00;96323.78;5019503;28;20525;-60
2024/04/02 00:25:35;;;;;;;3.72;0.88;;;;;;;6.35;100.00;96324.22;4998114;28;20034;-60
2024/04/02 00:28:00;;;;;;;3.70;0.93;;;;;;;6.30;100.00;96332.25;5008628;28;20046;-60
2024/04/02 00:30:27;;;;;;;1.60;0.60;;;;;;;6.21;100.00;96334.56;5013990;28;20047;-60
2024/04/02 00:32:54;;;;;;;2.13;0.80;;;;;;;6.13;100.00;96336.84;5016354;28;20077;-60
2024/04/02 00:35:20;;;;;;;1.23;0.57;;;;;;;6.06;100.00;96339.72;5009048;28;20072;-59
2024/04/02 00:37:47;;;;;;;2.67;0.57;;;;;;;6.06;100.00;96345.94;5015480;28;20057;-59
2024/04/02 00:40:13;;;;;;;1.55;0.93;;;;;;;6.05;100.00;96346.97;5006720;28;20044;-61
2024/04/02 00:42:39;;;;;;;3.65;1.00;;;;;;;6.02;100.00;96347.47;5015477;28;20045;-59
2024/04/02 00:45:05;;;;;;;0.93;0.55;;;;;;;6.03;100.00;96359.84;5011593;28;20061;-60
2024/04/02 00:47:32;;;;;;;1.20;0.50;;;;;;;6.02;100.00;96362.75;5011075;28;20061;-60
2024/04/02 00:49:59;;;;;;;2.65;0.70;;;;;;;5.91;100.00;96359.13;5020725;28;20524;-61
2024/04/02 00:52:25;;;;;;;0.90;0.40;;;;;;;5.86;100.00;96357.97;5018922;28;20037;-61
2024/04/02 00:54:51;;;;;;;0.75;0.40;;;;;;;5.89;100.00;96366.63;5026165;28;20049;-61
2024/04/02 00:57:16;;;;;;;2.75;0.60;;;;;;;5.83;100.00;96365.72;5023757;28;20045;-60
2024/04/02 00:59:42;;;;;;;2.05;0.90;;;;;;;5.72;100.00;96370.13;5027122;28;20041;-62
2024/04/02 01:02:08;;;;;;;2.28;0.75;;;;;;;5.60;100.00;96372.88;5020412;28;20049;-61
2024/04/02 01:04:34;;;;;;;2.38;0.75;;;;;;;5.65;100.00;96380.22;5021572;28;20045;-60
2024/04/02 01:07:02;;;;;;;1.17;0.52;;;;;;;5.70;100.00;96377.59;5024281;28;20390;-59
2024/04/02 01:09:29;;;;;;;1.02;0.50;;;;;;;5.77;100.00;96386.31;5008754;28;20033;-60
2024/04/02 01:11:55;;;;;;;1.77;0.60;;;;;;;5.67;100.00;96383.47;5011223;28;20046;-59
2024/04/02 01:14:20;;;;;;;0.73;0.50;;;;;;;5.61;100.00;96377.22;5018844;28;20098;-62
2024/04/02 01:16:46;;;;;;;0.90;0.40;;;;;;;5.50;100.00;96388.84;5026621;28;20045;-61
2024/04/02 01:19:11;;;;;;;1.23;0.70;;;;;;;5.38;100.00;96392.41;5018482;28;20052;-60
2024/04/02 01:21:38;;;;;;;0.57;0.40;;;;;;;5.21;100.00;96389.72;5023541;28;20128;-60
2024/04/02 01:24:04;;;;;;;1.58;0.68;;;;;;;5.05;100.00;96391.31;5024419;28;20056;-61
2024/04/02 01:26:30;;;;;;;0.77;0.47;;;;;;;4.96;100.00;96396.25;5030977;28;20037;-62
2024/04/02 01:29:00;;;;;;;1.02;0.70;;;;;;;4.97;100.00;96389.81;5028602;28;20073;-61
2024/04/02 01:31:32;;;;;;;0.97;0.60;;;;;;;4.82;100.00;96384.97;5018755;28;20040;-62
2024/04/02 01:33:59;;;;;;;1.45;0.70;;;;;;;4.68;100.00;96385.28;5027023;28;20683;-61
2024/04/02 01:36:24;;;;;;;2.65;0.55;;;;;;;4.62;100.00;96396.13;5018779;28;20437;-62
2024/04/02 01:38:50;;;;;;;2.80;0.50;;;;;;;4.56;100.00;96392.53;5018977;28;20513;-59
2024/04/02 01:41:16;;;;;;;1.27;0.65;;;;;;;4.38;100.00;96393.50;5015156;28;20037;-60
2024/04/02 01:43:41;;;;;;;1.35;0.50;;;;;;;4.41;100.00;96396.53;5018187;28;20091;-61
2024/04/02 01:46:07;;;;;;;0.82;0.50;;;;;;;4.40;100.00;96396.78;5015675;28;20058;-59
2024/04/02 01:48:33;;;;;;;1.88;0.60;;;;;;;4.43;100.00;96407.03;5023275;28;20095;-60
2024/04/02 01:50:58;;;;;;;0.85;0.50;;;;;;;4.47;100.00;96410.88;5021535;28;20045;-60
2024/04/02 01:53:24;;;;;;;2.08;0.52;;;;;;;4.64;100.00;96410.94;5017704;28;20046;-61
2024/04/02 01:55:50;;;;;;;1.65;0.60;;;;;;;4.71;100.00;96415.34;5024730;28;20034;-59
2024/04/02 01:58:16;;;;;;;1.17;0.52;;;;;;;4.75;100.00;96425.34;5021283;28;20044;-61
2024/04/02 02:00:41;;;;;;;1.05;0.45;;;;;;;4.81;100.00;96428.97;5018239;28;20037;-60
2024/04/02 02:03:07;;;;;;;0.50;0.38;;;;;;;5.13;100.00;96439.25;5017462;28;20516;-60
2024/04/02 02:05:32;;;;;;;2.67;0.40;;;;;;;5.31;100.00;96437.41;5016987;28;20071;-60
2024/04/02 02:07:58;;;;;;;0.88;0.50;;;;;;;5.50;100.00;96427.25;5023196;28;20091;-60
2024/04/02 02:10:24;;;;;;;0.40;0.38;;;;;;;5.68;100.00;96434.25;5016514;28;20556;-61
2024/04/02 02:12:49;;;;;;;1.17;0.40;;;;;;;5.84;100.00;96432.66;5025810;28;20056;-58
2024/04/02 02:15:15;;;;;;;0.60;0.40;;;;;;;5.95;100.00;96430.09;5026801;28;20041;-60
2024/04/02 02:17:42;;;;;;;0.95;0.40;;;;;;;5.96;100.00;96435.25;5014603;28;20083;-59
2024/04/02 02:20:08;;;;;;;2.13;0.55;;;;;;;6.13;100.00;96441.69;5021871;28;20041;-59
2024/04/02 02:22:34;;;;;;;0.52;0.35;;;;;;;6.18;100.00;96441.75;5021778;28;20083;-60
2024/04/02 02:25:00;;;;;;;0.85;0.30;;;;;;;6.24;100.00;96438.09;5022719;28;20045;-60
2024/04/02 02:27:25;;;;;;;1.85;0.50;;;;;;;6.19;100.00;96432.66;5023789;28;20127;-59
2024/04/02 02:29:51;;;;;;;3.95;0.80;;;;;;;6.11;100.00;96439.25;5020933;28;20053;-59
2024/04/02 02:32:16;;;;;;;2.17;0.60;;;;;;;6.13;100.00;96441.69;5017338;28;20120;-60
2024/04/02 02:34:42;;;;;;;1.00;0.50;;;;;;;6.03;100.00;96448.53;5019104;28;20045;-60
2024/04/02 02:37:08;;;;;;;2.22;0.68;;;;;;;6.10;100.00;96451.88;5019392;28;20041;-61
2024/04/02 02:39:33;;;;;;;1.38;0.60;;;;;;;6.07;100.00;96457.75;5026329;28;20447;-61
2024/04/02 02:41:59;;;;;;;0.98;0.32;;;;;;;6.09;100.00;96458.28;5020857;28;20049;-61
2024/04/02 02:44:25;;;;;;;1.42;0.50;;;;;;;6.07;100.00;96454.22;5021635;28;20051;-63
2024/04/02 02:46:50;;;;;;;0.47;0.30;;;;;;;6.18;100.00;96457.88;5021002;28;20091;-60
2024/04/02 02:49:16;;;;;;;1.25;0.55;;;;;;;6.18;100.00;96458.72;5022264;28;20141;-61
2024/04/02 02:51:41;;;;;;;2.08;0.50;;;;;;;6.21;100.00;96460.91;5024541;28;20026;-60
2024/04/02 02:54:07;;;;;;;0.45;0.40;;;;;;;6.20;100.00;96458.47;5027198;28;20064;-60
2024/04/02 02:56:32;;;;;;;1.98;0.60;;;;;;;6.15;100.00;96461.88;5019958;28;20041;-62
2024/04/02 02:58:58;;;;;;;1.05;0.40;;;;;;;6.02;100.00;96462.19;5017269;28;20398;-59
2024/04/02 03:01:24;;;;;;;2.10;0.50;;;;;;;5.96;100.00;96472.03;5021447;28;20104;-61
2024/04/02 03:03:51;;;;;;;2.17;0.68;;;;;;;5.99;100.00;96466.19;5022884;28;20124;-61
2024/04/02 03:06:20;;;;;;;1.67;0.50;;;;;;;5.93;100.00;96462.59;5013562;28;20045;-60
2024/04/02 03:08:46;;;;;;;1.48;0.57;;;;;;;5.95;100.00;96465.03;5012790;28;20481;-62
2024/04/02 03:11:11;;;;;;;1.00;0.43;;;;;;;5.93;100.00;96465.28;5010796;28;20091;-60
2024/04/02 03:13:37;;;;;;;0.73;0.40;;;;;;;5.90;100.00;96473.81;5020894;28;20160;-60
2024/04/02 03:16:03;;;;;;;0.20;0.20;;;;;;;5.84;100.00;96477.50;5010390;28;20053;-62
2024/04/02 03:18:30;;;;;;;2.30;0.52;;;;;;;5.82;100.00;96485.78;5024337;28;20053;-62
2024/04/02 03:20:56;;;;;;;0.93;0.40;;;;;;;5.84;100.00;96489.06;5011129;28;20048;-62
2024/04/02 03:23:22;;;;;;;1.00;0.47;;;;;;;5.76;100.00;96486.78;5012282;28;20033;-63
2024/04/02 03:25:55;;;;;;;0.30;0.30;;;;;;;5.71;100.00;96486.66;5020573;28;20099;-61
2024/04/02 03:28:21;;;;;;;1.08;0.45;;;;;;;5.66;100.00;96489.28;5016167;28;20041;-61
2024/04/02 03:30:47;;;;;;;3.45;0.60;;;;;;;5.76;100.00;96491.31;5015236;28;20037;-60
2024/04/02 03:33:16;;;;;;;0.90;0.30;;;;;;;5.66;100.00;96503.53;5017484;28;20479;-61
2024/04/02 03:35:42;;;;;;;0.68;0.40;;;;;;;5.64;100.00;96499.47;5011086;28;20042;-62
2024/04/02 03:38:08;;;;;;;0.90;0.45;;;;;;;5.58;100.00;96494.00;5023506;28;20175;-60
2024/04/02 03:40:39;;;;;;;0.60;0.40;;;;;;;5.62;100.00;96505.06;5020538;28;20033;-61
2024/04/02 03:43:05;;;;;;;0.88;0.40;;;;;;;5.70;100.00;96501.16;4997866;28;20046;-61
2024/04/02 03:45:31;;;;;;;0.75;0.40;;;;;;;5.72;100.00;96505.22;5017890;28;20500;-61
2024/04/02 03:47:56;;;;;;;1.10;0.55;;;;;;;5.80;100.00;96509.41;5022564;28;20071;-60
2024/04/02 03:50:23;;;;;;;1.35;0.55;;;;;;;5.82;100.00;96509.97;5018631;28;20033;-60
2024/04/02 03:52:48;;;;;;;1.90;0.52;;;;;;;5.81;100.00;96515.59;5013398;28;20037;-61
2024/04/02 03:55:14;;;;;;;1.10;0.50;;;;;;;5.75;100.00;96512.00;5022346;28;20556;-60
2024/04/02 03:57:40;;;;;;;0.85;0.60;;;;;;;5.78;100.00;96519.56;5016434;28;20049;-61
2024/04/02 04:00:06;;;;;;;1.33;0.40;;;;;;;5.79;100.00;96523.09;5020107;28;20073;-60
2024/04/02 04:02:35;;;;;;;0.90;0.40;;;;;;;5.76;100.00;96521.69;5009454;28;20077;-60
2024/04/02 04:05:00;;;;;;;0.50;0.40;;;;;;;5.75;100.00;96525.41;5017330;28;20052;-60
2024/04/02 04:07:26;;;;;;;0.80;0.60;;;;;;;5.75;100.00;96528.09;5024113;28;20574;-61
2024/04/02 04:09:52;;;;;;;0.98;0.50;;;;;;;5.67;100.00;96523.13;5014350;28;20116;-59
2024/04/02 04:12:17;;;;;;;1.85;0.50;;;;;;;5.63;100.00;96527.38;5006258;28;20517;-63
2024/04/02 04:14:47;;;;;;;1.10;0.50;;;;;;;5.55;100.00;96532.06;5016970;28;20041;-62
2024/04/02 04:17:12;;;;;;;1.80;0.60;;;;;;;5.39;100.00;96538.19;5019199;28;20072;-61
2024/04/02 04:19:38;;;;;;;0.98;0.50;;;;;;;5.37;100.00;96535.75;5023199;28;20041;-63
2024/04/02 04:22:03;;;;;;;1.30;0.50;;;;;;;5.39;100.00;96533.66;5015882;28;20125;-63
2024/04/02 04:24:29;;;;;;;2.60;0.60;;;;;;;5.25;100.00;96532.28;5013901;28;20037;-60
2024/04/02 04:26:55;;;;;;;1.23;0.60;;;;;;;5.24;100.00;96542.22;5023266;28;20524;-61
2024/04/02 04:29:20;;;;;;;0.63;0.45;;;;;;;5.33;100.00;96543.47;5018819;28;20619;-61
2024/04/02 04:31:46;;;;;;;1.10;0.50;;;;;;;5.36;100.00;96536.81;5014399;28;20127;-62
2024/04/02 04:34:13;;;;;;;2.40;0.70;;;;;;;5.35;100.00;96543.25;5021743;28;20168;-61
2024/04/02 04:36:38;;;;;;;2.58;0.50;;;;;;;5.35;100.00;96548.63;5017985;28;20045;-62
2024/04/02 04:39:05;;;;;;;0.85;0.60;;;;;;;5.33;100.00;96548.84;5021327;28;20124;-63
2024/04/02 04:41:31;;;;;;;1.20;0.52;;;;;;;5.31;100.00;96560.88;5021267;28;20036;-62
2024/04/02 04:43:57;;;;;;;0.82;0.40;;;;;;;5.30;100.00;96548.50;5014310;28;20073;-60
2024/04/02 04:46:23;;;;;;;1.40;0.52;;;;;;;5.34;100.00;96565.75;5015948;28;20120;-62
2024/04/02 04:48:49;;;;;;;1.52;0.75;;;;;;;5.42;100.00;96557.31;5025327;28;20037;-61
2024/04/02 04:51:14;;;;;;;1.02;0.60;;;;;;;5.51;100.00;96547.03;5016377;28;20044;-63
2024/04/02 04:53:40;;;;;;;2.22;0.70;;;;;;;5.54;100.00;96559.97;5025411;28;20073;-62
2024/04/02 04:56:06;;;;;;;1.65;0.55;;;;;;;5.51;100.00;96565.00;5021904;28;20091;-61
2024/04/02 04:58:35;;;;;;;1.00;0.50;;;;;;;5.49;100.00;96573.28;5018436;28;20045;-61
2024/04/02 05:01:03;;;;;;;1.38;0.60;;;;;;;5.57;100.00;96578.28;5017481;28;20069;-60
2024/04/02 05:03:28;;;;;;;2.33;0.85;;;;;;;5.67;100.00;96577.66;5020207;28;20056;-63
2024/04/02 05:06:07;;;;;;;0.90;0.43;;;;;;;5.79;100.00;96584.88;5013112;28;20132;-61
2024/04/02 05:08:35;;;;;;;0.63;0.30;;;;;;;5.80;100.00;96584.63;5019710;28;20327;-61
2024/04/02 05:11:02;;;;;;;1.63;0.68;;;;;;;5.89;100.00;96595.78;5012121;28;20092;-63
2024/04/02 05:13:30;;;;;;;5.07;0.57;;;;;;;5.87;100.00;96597.91;5017423;28;20509;-63
2024/04/02 05:15:56;;;;;;;1.25;0.50;;;;;;;5.83;100.00;96594.09;5019391;28;20045;-64
2024/04/02 05:18:21;;;;;;;1.75;0.43;;;;;;;5.83;100.00;96600.25;5013251;28;20048;-63
2024/04/02 05:20:47;;;;;;;0.52;0.30;;;;;;;5.91;100.00;96595.56;5018615;28;20037;-64
2024/04/02 05:23:13;;;;;;;1.48;0.40;;;;;;;6.00;100.00;96604.84;5012428;28;21555;-63
2024/04/02 05:25:39;;;;;;;1.15;0.40;;;;;;;6.00;100.00;96607.53;5017675;28;20042;-63
2024/04/02 05:28:06;;;;;;;1.75;0.40;;;;;;;6.12;100.00;96615.59;5018557;28;20067;-63
2024/04/02 05:30:33;;;;;;;0.77;0.30;;;;;;;6.03;100.00;96622.38;5010911;28;20048;-63
2024/04/02 05:32:59;;;;;;;1.17;0.40;;;;;;;5.97;100.00;96621.47;5019057;28;20067;-63
2024/04/02 05:35:24;;;;;;;1.02;0.45;;;;;;;5.95;100.00;96610.13;5016512;28;20485;-63
2024/04/02 05:37:53;;;;;;;1.73;0.50;;;;;;;5.88;100.00;96617.53;5014321;28;20184;-63
2024/04/02 05:40:19;;;;;;;2.58;0.50;;;;;;;5.96;100.00;96617.13;5008432;28;20045;-63
2024/04/02 05:42:45;;;;;;;0.93;0.50;;;;;;;5.95;100.00;96619.03;5012142;28;20037;-63
2024/04/02 05:45:15;;;;;;;0.95;0.50;;;;;;;6.04;100.00;96624.03;5016076;28;20057;-64
2024/04/02 05:47:41;;;;;;;2.33;0.57;;;;;;;6.11;100.00;96628.22;5023869;28;20042;-63
2024/04/02 05:50:07;;;;;;;1.05;0.60;;;;;;;6.23;100.00;96633.50;5015805;28;20042;-63
2024/04/02 05:52:32;;;;;;;1.35;0.90;;;;;;;6.30;100.00;96635.25;5014651;28;20045;-63
2024/04/02 05:54:58;;;;;;;0.90;0.60;;;;;;;6.35;100.00;96646.09;5021385;28;20102;-64
2024/04/02 05:57:24;;;;;;;0.40;0.40;;;;;;;6.48;100.00;96651.16;5017961;28;20108;-64
2024/04/02 05:59:52;;;;;;;1.67;0.68;;;;;;;6.51;100.00;96652.53;5016416;28;20543;-64
2024/04/02 06:02:19;;;;;;;1.25;0.60;;;;;;;6.56;100.00;96658.00;5021369;28;20037;-64
2024/04/02 06:04:48;;;;;;;0.75;0.43;;;;;;;6.50;100.00;96662.47;5015223;28;20057;-64
2024/04/02 06:07:13;;;;;;;1.88;0.70;;;;;;;6.49;100.00;96671.59;5017116;28;21711;-64
2024/04/02 06:09:40;;;;;;;1.38;0.60;;;;;;;6.70;100.00;96671.13;5011749;28;20441;-63
2024/04/02 06:12:06;;;;;;;0.52;0.35;;;;;;;6.79;100.00;96677.75;5015245;28;20045;-64
2024/04/02 06:14:33;;;;;;;2.20;0.40;;;;;;;6.66;100.00;96686.94;5025905;28;20500;-63
2024/04/02 06:16:59;;;;;;;0.82;0.40;;;;;;;6.69;100.00;96685.63;5020970;28;20422;-64
2024/04/02 06:19:24;;;;;;;0.60;0.32;;;;;;;6.55;100.00;96688.66;5022442;28;20538;-63
2024/04/02 06:21:50;;;;;;;0.93;0.50;;;;;;;6.47;100.00;96694.41;5019862;28;20045;-64
2024/04/02 06:24:16;;;;;;;0.80;0.35;;;;;;;6.63;100.00;96699.00;5012178;28;20040;-63
2024/04/02 06:26:41;;;;;;;2.83;0.70;;;;;;;6.61;100.00;96698.44;5009675;28;20413;-63
2024/04/02 06:29:07;;;;;;;1.45;0.60;;;;;;;6.64;100.00;96687.19;5016371;28;20099;-64
2024/04/02 06:31:33;;;;;;;1.42;0.50;;;;;;;6.59;100.00;96692.47;5020899;28;20047;-63
2024/04/02 06:33:58;;;;;;;1.30;0.47;;;;;;;6.69;100.00;96691.00;5022929;28;20588;-64
2024/04/02 06:36:24;;;;;;;0.57;0.30;;;;;;;6.78;100.00;96705.69;5019396;28;20034;-63
2024/04/02 06:38:50;;;;;;;0.30;0.30;;;;;;;6.84;100.00;96701.22;5012539;28;20506;-63
2024/04/02 06:41:15;;;;;;;0.88;0.50;;;;;;;7.07;100.00;96696.75;5018635;28;20044;-63
2024/04/02 06:43:41;;;;;;;1.33;0.40;;;;;;;7.15;100.00;96699.81;5016019;28;20041;-64
2024/04/02 06:46:07;;;;;;;1.98;0.40;;;;;;;7.15;100.00;96710.59;5025262;28;20041;-63
2024/04/02 06:48:32;;;;;;;1.60;0.47;;;;;;;7.11;100.00;96711.34;5015794;28;20732;-63
2024/04/02 06:50:59;;;;;;;0.98;0.40;;;;;;;7.31;100.00;96718.91;5013570;28;20052;-63
2024/04/02 06:53:26;;;;;;;1.45;0.30;;;;;;;7.37;100.00;96719.81;5022375;28;20045;-63
2024/04/02 06:55:52;;;;;;;1.35;0.30;;;;;;;7.40;100.00;96714.72;5021348;28;20116;-63
2024/04/02 06:58:18;;;;;;;1.15;0.32;;;;;;;7.12;100.00;96705.69;5022909;28;20074;-63
2024/04/02 07:00:44;;;;;;;1.05;0.40;;;;;;;7.16;100.00;96703.34;5013641;28;20042;-64
2024/04/02 07:03:15;;;;;;;0.57;0.30;;;;;;;7.27;100.00;96715.88;5020661;28;20095;-64
2024/04/02 07:05:41;;;;;;;1.33;0.40;;;;;;;7.44;100.00;96716.94;5014046;28;20045;-64
2024/04/02 07:08:07;;;;;;;1.60;0.50;;;;;;;7.68;100.00;96714.81;5017536;28;20184;-64
2024/04/02 07:10:32;;;;;;;2.28;0.35;;;;;;;7.86;100.00;96715.59;5019513;28;20036;-64
2024/04/02 07:12:58;;;;;;;1.52;0.43;;;;;;;8.17;100.00;96719.47;5022151;28;20505;-64
2024/04/02 07:15:23;;;;;;;2.10;0.70;;;;;;;8.11;100.00;96728.53;5008636;28;20037;-65
2024/04/02 07:17:49;;;;;;;6.15;0.70;;;;;;;7.94;100.00;96726.75;5025141;28;20103;-64
2024/04/02 07:20:15;;;;;;;2.38;0.45;;;;;;;8.10;100.00;96726.91;5005223;28;20045;-64
2024/04/02 07:22:41;;;;;;;2.75;0.57;;;;;;;8.19;100.00;96732.69;5012900;28;20091;-64
2024/04/02 07:25:06;;;;;;;3.63;0.70;;;;;;;8.31;100.00;96738.78;5019460;28;20049;-64
2024/04/02 07:27:33;;;;;;;1.65;0.47;;;;;;;8.13;100.00;96733.69;5015088;28;20041;-65
2024/04/02 07:29:59;;;;;;;2.72;0.82;;;;;;;8.15;100.00;96735.06;5019360;28;20049;-65
2024/04/02 07:32:25;;;;;;;3.50;0.80;;;;;;;8.35;100.00;96730.16;5018872;28;20048;-65
2024/04/02 07:34:51;;;;;;;6.07;0.80;;;;;;;8.62;100.00;96724.78;5006965;28;20452;-65
2024/04/02 07:37:16;;;;;;;1.90;0.40;;;;;;;8.66;100.00;96734.00;5017820;28;20049;-64
2024/04/02 07:39:42;;;;;;;5.65;0.90;;;;;;;8.65;100.00;96743.19;5013438;28;20042;-64
2024/04/02 07:42:08;;;;;;;3.25;0.88;;;;;;;8.92;100.00;96742.34;5011367;28;20579;-64
2024/04/02 07:44:33;;;;;;;4.15;0.60;;;;;;;9.09;100.00;96750.31;5014470;28;20085;-64
2024/04/02 07:46:59;;;;;;;2.75;0.80;;;;;;;9.56;100.00;96744.44;5022651;28;20509;-62
2024/04/02 07:49:24;;;;;;;4.50;0.47;;;;;;;9.59;100.00;96754.72;5008953;28;20133;-62
2024/04/02 07:51:52;;;;;;;4.80;0.90;;;;;;;9.36;100.00;96749.44;5013592;28;20133;-64
2024/04/02 07:54:17;;;;;;;3.90;1.15;;;;;;;9.10;100.00;96751.13;5019013;28;20042;-62
2024/04/02 07:56:43;;;;;;;3.88;0.55;;;;;;;8.51;100.00;96758.94;5017156;28;20052;-62
2024/04/02 07:59:08;;;;;;;3.67;0.90;;;;;;;8.44;100.00;96761.03;5021088;28;20067;-62
2024/04/02 08:01:34;;;;;;;4.10;0.65;;;;;;;8.67;100.00;96757.22;5013055;28;20642;-63
2024/04/02 08:03:59;;;;;;;4.95;1.10;;;;;;;8.90;100.00;96768.78;5022829;28;20184;-63
2024/04/02 08:06:25;;;;;;;3.92;1.00;;;;;;;9.06;100.00;96775.13;5018930;28;20083;-62
2024/04/02 08:08:51;;;;;;;6.30;1.15;;;;;;;8.90;100.00;96778.78;5008760;28;20037;-62
2024/04/02 08:11:16;;;;;;;4.72;0.88;;;;;;;9.05;100.00;96772.69;5038232;28;20052;-63
2024/04/02 08:13:42;;;;;;;7.35;0.98;;;;;;;9.02;100.00;96778.59;5014034;28;20041;-63
2024/04/02 08:16:07;;;;;;;3.05;0.43;;;;;;;9.16;100.00;96789.78;5020661;28;20048;-62
2024/04/02 08:18:33;;;;;;;3.55;0.98;;;;;;;9.04;100.00;96787.28;5019866;28;20038;-62
2024/04/02 08:20:58;;;;;;;4.25;0.73;;;;;;;9.10;100.00;96795.16;5015851;28;20102;-62
2024/04/02 08:23:24;;;;;;;2.45;0.63;;;;;;;8.89;100.00;96798.75;5018052;28;20042;-63
2024/04/02 08:25:50;;;;;;;2.88;0.75;;;;;;;8.78;100.00;96811.31;5018464;28;20046;-63
2024/04/02 08:28:16;;;;;;;4.28;0.98;;;;;;;8.67;100.00;96797.72;5019907;28;20530;-62
2024/04/02 08:30:42;;;;;;;3.65;1.02;;;;;;;8.68;100.00;96803.94;5023018;28;20503;-63
2024/04/02 08:33:07;;;;;;;5.80;1.13;;;;;;;8.54;100.00;96815.13;5020881;28;20120;-63
2024/04/02 08:35:33;;;;;;;3.17;0.70;;;;;;;8.58;100.00;96824.34;5012250;28;20664;-63
2024/04/02 08:37:58;;;;;;;1.63;0.55;;;;;;;8.67;100.00;96827.41;5022589;28;20680;-64
2024/04/02 08:40:31;;;;;;;7.45;0.80;;;;;;;8.76;100.00;96827.78;5017219;28;20038;-64
2024/04/02 08:43:04;;;;;;;2.67;0.77;;;;;;;8.76;100.00;96825.06;5017576;28;20053;-63
2024/04/02 08:45:30;;;;;;;3.72;0.70;;;;;;;8.38;100.00;96824.91;5012386;28;20096;-62
2024/04/02 08:47:56;;;;;;;4.97;0.70;;;;;;;8.55;100.00;96832.94;5019474;28;20045;-64
2024/04/02 08:50:22;;;;;;;3.63;0.80;;;;;;;8.75;100.00;96838.81;5016807;28;20037;-63
2024/04/02 08:52:51;;;;;;;3.05;0.70;;;;;;;8.90;100.00;96839.00;5018429;28;20071;-62
2024/04/02 08:55:21;;;;;;;3.92;0.80;;;;;;;9.41;100.00;96827.03;5014813;28;20049;-64
2024/04/02 08:57:50;;;;;;;1.55;0.55;;;;;;;9.32;100.00;96847.50;5024539;28;20073;-64
2024/04/02 09:00:16;;;;;;;3.67;0.40;;;;;;;9.33;100.00;96847.22;5016571;28;20115;-63
2024/04/02 09:02:45;;;;;;;2.08;0.47;;;;;;;9.23;100.00;96845.25;5008224;28;20066;-62
2024/04/02 09:05:11;;;;;;;3.20;0.70;;;;;;;9.48;100.00;96849.22;5022355;28;20575;-63
2024/04/02 09:07:36;;;;;;;1.70;0.45;;;;;;;9.72;100.00;96846.19;5016961;28;20045;-63
2024/04/02 09:10:02;;;;;;;4.00;0.77;;;;;;;10.00;100.00;96851.50;5006384;28;20128;-62
2024/04/02 09:12:28;;;;;;;3.58;0.60;;;;;;;10.15;100.00;96843.47;5019285;28;20049;-63
2024/04/02 09:14:53;;;;;;;3.70;0.93;;;;;;;10.03;100.00;96853.69;5013159;28;20128;-63
2024/04/02 09:17:19;;;;;;;3.97;0.88;;;;;;;9.78;100.00;96857.03;5026712;28;20119;-62
2024/04/02 09:19:44;;;;;;;3.08;0.88;;;;;;;9.36;100.00;96854.81;5021984;28;20042;-63
2024/04/02 09:22:11;;;;;;;3.58;0.70;;;;;;;9.46;100.00;96843.28;5019585;28;20096;-62
2024/04/02 09:24:37;;;;;;;2.95;0.80;;;;;;;9.42;100.00;96849.44;5021143;28;20091;-62
2024/04/02 09:27:02;;;;;;;6.43;0.95;;;;;;;9.76;100.00;96835.66;5015128;28;20050;-62
2024/04/02 09:29:28;;;;;;;2.13;0.60;;;;;;;9.87;100.00;96836.53;5018431;28;20447;-65
2024/04/02 09:31:54;;;;;;;7.35;0.90;;;;;;;10.12;100.00;96832.34;4999789;28;20132;-63
2024/04/02 09:34:21;;;;;;;5.07;0.65;;;;;;;10.42;100.00;96833.59;5018106;28;20101;-64
2024/04/02 09:36:52;;;;;;;3.17;0.52;;;;;;;10.30;100.00;96851.94;5016395;28;20091;-61
2024/04/02 09:39:21;;;;;;;3.25;0.65;;;;;;;10.53;100.00;96832.59;5016351;28;20106;-64
2024/04/02 09:41:49;;;;;;;4.80;0.60;;;;;;;10.44;100.00;96846.84;5019400;28;20045;-62
2024/04/02 09:44:15;;;;;;;4.95;1.27;;;;;;;10.77;99.92;96836.72;5023074;28;20045;-63
2024/04/02 09:46:42;;;;;;;4.47;0.60;;;;;;;10.82;98.59;96852.16;5017249;28;20114;-64
2024/04/02 09:49:10;;;;;;;2.88;0.60;;;;;;;10.75;98.15;96847.81;5009575;28;20069;-63
2024/04/02 09:51:39;;;;;;;3.95;0.80;;;;;;;10.66;99.08;96841.28;5012016;28;20085;-65
2024/04/02 09:54:05;;;;;;;3.60;1.05;;;;;;;10.69;98.05;96848.88;5014698;28;20088;-67
2024/04/02 09:56:32;;;;;;;2.95;0.85;;;;;;;10.95;96.98;96853.56;5019570;28;20540;-67
2024/04/02 09:59:03;;;;;;;4.35;0.70;;;;;;;10.99;95.35;96852.75;5021867;28;20068;-64
2024/04/02 10:01:32;;;;;;;3.47;0.90;;;;;;;11.03;94.42;96842.19;5011197;28;20569;-64
2024/04/02 10:04:01;;;;;;;1.60;0.40;;;;;;;10.94;93.92;96850.03;5017980;28;20061;-63
2024/04/02 10:06:31;;;;;;;3.05;0.60;;;;;;;10.87;94.68;96841.38;5021006;28;20038;-63
2024/04/02 10:09:02;;;;;;;5.70;0.70;;;;;;;10.73;96.06;96846.47;5011656;28;20084;-66
2024/04/02 10:11:38;;;;;;;4.00;0.77;;;;;;;11.11;89.12;96855.22;5038056;28;20515;-66
2024/04/02 10:14:12;;;;;;;1.88;0.60;;;;;;;11.18;91.35;96846.84;5020789;28;20320;-67
2024/04/02 10:16:43;;;;;;;5.55;0.77;;;;;;;11.08;86.30;96852.22;5020710;28;20409;-66
2024/04/02 10:19:16;;;;;;;6.28;0.68;;;;;;;11.28;87.94;96860.38;5027480;28;20107;-66
2024/04/02 10:21:43;;;;;;;3.95;0.60;;;;;;;10.86;82.40;96867.63;5006890;28;20421;-66
2024/04/02 10:24:15;;;;;;;3.70;0.63;;;;;;;10.79;85.46;96858.91;5018886;28;20041;-67
2024/04/02 10:26:42;;;;;;;2.28;0.63;;;;;;;11.02;82.03;96864.97;5015433;28;20096;-66
2024/04/02 10:29:08;;;;;;;2.20;0.50;;;;;;;10.89;80.73;96855.44;5024916;28;20087;-67
2024/04/02 10:31:36;;;;;;;3.97;0.80;;;;;;;11.39;80.90;96857.69;5016664;28;20041;-66
2024/04/02 10:34:06;;;;;;;3.45;0.70;;;;;;;11.17;79.49;96856.84;5011526;28;20046;-66
2024/04/02 10:36:33;;;;;;;2.22;0.60;;;;;;;11.10;76.62;96855.50;5016273;28;20424;-66
2024/04/02 10:38:58;;;;;;;2.65;0.52;;;;;;;11.64;79.10;96848.75;5017417;28;20577;-65
2024/04/02 10:41:24;;;;;;;1.75;0.50;;;;;;;11.91;77.79;96854.97;5014821;28;20044;-66
2024/04/02 10:43:49;;;;;;;1.20;0.43;;;;;;;12.15;75.31;96840.84;5012250;28;20133;-67
2024/04/02 10:46:15;;;;;;;1.80;0.40;;;;;;;12.06;74.30;96843.31;5023374;28;20562;-66
2024/04/02 10:48:41;;;;;;;3.95;0.68;;;;;;;11.74;73.33;96837.09;5017840;28;20179;-66
2024/04/02 10:51:09;;;;;;;0.95;0.40;;;;;;;11.83;70.09;96837.34;5021690;28;20160;-66
2024/04/02 10:53:34;;;;;;;1.45;0.30;;;;;;;11.69;70.56;96846.03;5022631;28;20037;-66
2024/04/02 10:56:02;;;;;;;0.60;0.30;;;;;;;11.29;72.64;96845.78;5017804;28;20535;-67
2024/04/02 10:58:28;;;;;;;2.13;0.32;;;;;;;11.40;74.05;96853.91;5017693;28;20072;-67
2024/04/02 11:00:53;;;;;;;4.38;1.10;;;;;;;11.68;75.65;96843.59;5011845;28;20805;-66
2024/04/02 11:03:19;;;;;;;1.63;0.47;;;;;;;11.31;78.31;96850.91;5021367;28;20041;-66
2024/04/02 11:05:46;;;;;;;2.65;0.57;;;;;;;11.06;83.14;96855.22;5013841;28;20707;-66
2024/04/02 11:08:12;;;;;;;1.40;0.35;;;;;;;10.68;87.95;96849.16;5017085;28;20049;-65
2024/04/02 11:10:47;;;;;;;1.50;0.40;;;;;;;10.44;100.00;96861.25;5022986;28;20080;-66
2024/04/02 11:13:23;;;;;;;3.22;0.60;;;;;;;10.30;100.00;96854.63;5019207;28;20540;-67
2024/04/02 11:15:49;;;;;;;2.00;0.75;;;;;;;10.27;93.56;96851.38;5012835;28;20072;-67
2024/04/02 11:18:23;;;;;;;1.48;0.50;;;;;;;10.57;91.56;96856.44;5014044;28;20057;-66
2024/04/02 11:20:55;;;;;;;3.03;0.60;;;;;;;10.91;87.84;96859.50;5020887;28;20076;-66
2024/04/02 11:26:18;;;;;;;1.60;0.60;;;;;;;11.43;85.18;96854.16;5023768;28;20471;-66
2024/04/02 11:28:44;;;;;;;3.10;0.55;;;;;;;11.55;87.67;96853.91;5017365;28;20045;-66
2024/04/02 11:31:14;;;;;;;2.75;0.60;;;;;;;11.62;85.01;96852.81;5020597;28;20069;-66
2024/04/02 11:33:41;;;;;;;2.40;0.45;;;;;;;11.87;83.21;96862.81;5019024;28;20072;-67